Time;durP1;ratioP1;P1;durP2;ratioP2;P2;SDS_P1;SDS_P2;PMS_P1;PMS_P2;Temp;Humidity;BMP_temperature;BMP_pressure;BME280_temperature;BME280_humidity;BME280_pressure;Samples;Min_cycle;Max_cycle;Signal;HPM_P1;HPM_P2
2021/07/08 00:00:34;;;;;;;6.60;4.97;;;25.40;82.30;;;;;;5065217;28;20594;-68
2021/07/08 00:03:01;;;;;;;8.73;4.53;;;25.40;82.50;;;;;;5066366;28;20639;-68
2021/07/08 00:05:29;;;;;;;7.77;5.20;;;25.40;82.60;;;;;;5063643;28;20773;-68
2021/07/08 00:07:58;;;;;;;9.20;5.10;;;25.30;82.60;;;;;;5063623;28;20272;-68
2021/07/08 00:10:35;;;;;;;6.77;5.63;;;25.30;82.80;;;;;;5066571;28;20210;-68
2021/07/08 00:13:02;;;;;;;8.43;4.83;;;25.30;82.90;;;;;;5066370;28;20213;-68
2021/07/08 00:15:30;;;;;;;4.90;4.50;;;25.20;82.70;;;;;;5062667;28;20222;-68
2021/07/08 00:17:59;;;;;;;5.53;4.27;;;25.30;82.20;;;;;;5063763;28;20260;-68
2021/07/08 00:20:28;;;;;;;8.30;4.60;;;25.20;81.90;;;;;;5066313;28;20526;-68
2021/07/08 00:22:55;;;;;;;5.37;4.50;;;25.20;81.70;;;;;;5061692;28;20221;-68
2021/07/08 00:25:25;;;;;;;9.97;4.37;;;25.10;81.80;;;;;;5064264;28;20220;-68
2021/07/08 00:27:53;;;;;;;8.97;4.90;;;25.10;82.00;;;;;;5062532;28;20280;-68
2021/07/08 00:30:21;;;;;;;6.33;5.60;;;25.10;82.20;;;;;;5064035;28;20209;-68
2021/07/08 00:32:49;;;;;;;6.30;5.70;;;25.00;82.70;;;;;;5065181;28;20217;-68
2021/07/08 00:35:21;;;;;;;6.17;5.50;;;25.00;83.10;;;;;;5062894;28;20261;-68
2021/07/08 00:37:48;;;;;;;8.30;6.17;;;25.00;83.60;;;;;;5062122;28;20230;-68
2021/07/08 00:40:15;;;;;;;4.07;3.60;;;25.00;83.90;;;;;;5065190;28;20214;-68
2021/07/08 00:42:43;;;;;;;4.60;4.20;;;25.00;83.50;;;;;;5063184;28;20222;-68
2021/07/08 00:45:14;;;;;;;7.10;4.43;;;25.00;83.10;;;;;;5061942;28;20245;-68
2021/07/08 00:47:41;;;;;;;7.23;5.57;;;25.00;83.00;;;;;;5062543;28;20218;-68
2021/07/08 00:50:11;;;;;;;5.43;4.60;;;25.00;82.80;;;;;;5063146;28;20213;-68
2021/07/08 00:52:38;;;;;;;8.13;4.37;;;25.10;82.70;;;;;;5064985;28;20222;-68
2021/07/08 00:55:07;;;;;;;6.13;4.60;;;25.00;82.40;;;;;;5061743;28;20222;-68
2021/07/08 00:57:34;;;;;;;5.60;5.00;;;25.00;82.30;;;;;;5062528;28;20300;-68
2021/07/08 01:00:03;;;;;;;5.10;4.70;;;25.10;82.20;;;;;;5062002;28;20218;-68
2021/07/08 01:02:30;;;;;;;7.40;4.73;;;25.00;82.00;;;;;;5063397;28;20717;-68
2021/07/08 01:04:58;;;;;;;4.67;4.27;;;25.00;82.00;;;;;;5060650;28;20228;-68
2021/07/08 01:07:26;;;;;;;7.30;4.50;;;25.00;82.40;;;;;;5061792;28;20214;-68
2021/07/08 01:09:53;;;;;;;6.10;5.50;;;25.00;81.80;;;;;;5063189;28;20214;-68
2021/07/08 01:12:20;;;;;;;5.90;5.00;;;25.00;82.00;;;;;;5066336;28;20433;-68
2021/07/08 01:14:47;;;;;;;7.00;4.97;;;24.90;82.00;;;;;;5064596;28;20221;-68
2021/07/08 01:17:14;;;;;;;8.20;4.90;;;24.90;81.80;;;;;;5063109;28;20550;-68
2021/07/08 01:19:42;;;;;;;5.80;5.30;;;24.90;81.90;;;;;;5061537;28;20210;-68
2021/07/08 01:22:10;;;;;;;6.00;5.40;;;24.90;82.20;;;;;;5063746;28;20289;-68
2021/07/08 01:24:37;;;;;;;4.47;4.10;;;24.90;82.30;;;;;;5064423;28;20219;-68
2021/07/08 01:27:06;;;;;;;5.53;5.03;;;24.90;82.10;;;;;;5064352;28;20248;-68
2021/07/08 01:29:34;;;;;;;6.03;4.87;;;24.90;81.90;;;;;;5062894;28;20214;-68
2021/07/08 01:32:01;;;;;;;6.87;4.60;;;24.90;81.70;;;;;;5061808;28;20621;-68
2021/07/08 01:34:29;;;;;;;5.47;4.97;;;24.90;81.60;;;;;;5064333;28;20217;-68
2021/07/08 01:36:56;;;;;;;5.80;4.83;;;24.90;81.80;;;;;;5062455;28;20582;-68
2021/07/08 01:39:23;;;;;;;5.33;4.90;;;24.90;81.90;;;;;;5061659;28;20686;-68
2021/07/08 01:41:50;;;;;;;4.87;4.47;;;24.90;82.00;;;;;;5064406;28;20217;-68
2021/07/08 01:44:17;;;;;;;6.10;4.63;;;24.80;81.90;;;;;;5062696;28;20206;-68
2021/07/08 01:46:45;;;;;;;9.50;5.33;;;24.80;82.20;;;;;;5061562;28;20540;-68
2021/07/08 01:49:12;;;;;;;6.03;4.93;;;24.80;82.50;;;;;;5061305;28;20218;-68
2021/07/08 01:51:39;;;;;;;5.40;4.90;;;24.70;82.50;;;;;;5066405;28;20210;-68
2021/07/08 01:54:09;;;;;;;7.23;6.53;;;24.60;82.40;;;;;;5061392;28;20230;-68
2021/07/08 01:56:38;;;;;;;5.93;5.33;;;24.60;83.10;;;;;;5063815;28;20241;-68
2021/07/08 01:59:05;;;;;;;7.70;6.00;;;24.50;83.50;;;;;;5066182;28;20214;-68
2021/07/08 02:01:32;;;;;;;9.77;6.77;;;24.50;83.80;;;;;;5068047;28;20209;-68
2021/07/08 02:03:59;;;;;;;7.03;5.40;;;24.50;84.40;;;;;;5066144;28;20327;-68
2021/07/08 02:06:26;;;;;;;6.27;5.67;;;24.40;84.50;;;;;;5065837;28;20210;-68
2021/07/08 02:08:53;;;;;;;9.13;8.23;;;24.40;84.50;;;;;;5067835;28;20217;-68
2021/07/08 02:11:21;;;;;;;10.90;8.53;;;24.30;85.40;;;;;;5065924;28;20214;-68
2021/07/08 02:13:48;;;;;;;12.93;8.53;;;24.30;86.20;;;;;;5068641;28;20276;-68
2021/07/08 02:16:15;;;;;;;6.40;5.90;;;24.30;86.50;;;;;;5067637;28;20214;-68
2021/07/08 02:18:44;;;;;;;7.03;6.43;;;24.30;86.70;;;;;;5065703;28;20244;-68
2021/07/08 02:21:11;;;;;;;7.50;6.90;;;24.30;86.40;;;;;;5065007;28;20272;-68
2021/07/08 02:23:39;;;;;;;8.50;7.67;;;24.30;86.50;;;;;;5063800;28;20206;-68
2021/07/08 02:26:08;;;;;;;6.77;6.17;;;24.30;86.50;;;;;;5066284;28;20206;-68
2021/07/08 02:28:38;;;;;;;8.20;7.47;;;24.30;86.10;;;;;;5064476;28;20202;-68
2021/07/08 02:31:05;;;;;;;9.23;7.00;;;24.40;86.20;;;;;;5065577;28;20210;-68
2021/07/08 02:33:33;;;;;;;7.17;6.47;;;24.30;86.00;;;;;;5065329;28;20548;-68
2021/07/08 02:36:00;;;;;;;7.80;7.00;;;24.30;85.80;;;;;;5067484;28;20213;-68
2021/07/08 02:38:27;;;;;;;9.87;7.07;;;24.30;85.90;;;;;;5065584;28;20238;-68
2021/07/08 02:40:54;;;;;;;9.37;7.80;;;24.20;86.10;;;;;;5065053;28;20211;-68
2021/07/08 02:43:22;;;;;;;8.03;7.43;;;24.20;86.30;;;;;;5067021;28;20213;-68
2021/07/08 02:45:49;;;;;;;8.83;7.93;;;24.20;86.40;;;;;;5065794;28;20248;-68
2021/07/08 02:48:19;;;;;;;8.13;7.43;;;24.10;86.50;;;;;;5064938;28;20214;-68
2021/07/08 02:50:50;;;;;;;8.03;6.97;;;24.10;86.40;;;;;;5064694;28;20233;-68
2021/07/08 02:53:19;;;;;;;9.60;8.20;;;24.10;86.30;;;;;;5064926;28;20218;-68
2021/07/08 02:55:46;;;;;;;9.73;8.73;;;24.00;86.40;;;;;;5064137;28;20214;-68
2021/07/08 02:58:13;;;;;;;8.13;7.43;;;24.00;86.80;;;;;;5064770;28;20241;-68
2021/07/08 03:00:41;;;;;;;9.63;6.80;;;24.00;87.00;;;;;;5066769;28;20210;-68
2021/07/08 03:03:08;;;;;;;9.10;8.20;;;24.00;86.70;;;;;;5063924;28;20221;-68
2021/07/08 03:05:36;;;;;;;6.67;6.00;;;24.00;86.80;;;;;;5065411;28;20209;-68
2021/07/08 03:08:03;;;;;;;7.43;6.87;;;24.00;86.70;;;;;;5064808;28;20275;-68
2021/07/08 03:10:31;;;;;;;8.67;7.87;;;24.00;86.50;;;;;;5064076;28;20272;-68
2021/07/08 03:12:59;;;;;;;9.40;6.43;;;24.10;86.60;;;;;;5067611;28;20221;-68
2021/07/08 03:15:27;;;;;;;7.40;6.47;;;24.10;86.50;;;;;;5064096;28;20245;-68
2021/07/08 03:17:54;;;;;;;7.37;6.73;;;24.20;86.30;;;;;;5065764;28;20250;-68
2021/07/08 03:20:24;;;;;;;8.00;6.90;;;24.20;86.20;;;;;;5065681;28;20271;-68
2021/07/08 03:22:52;;;;;;;7.47;6.63;;;24.20;86.20;;;;;;5063238;28;20296;-68
2021/07/08 03:25:21;;;;;;;9.67;8.27;;;24.30;86.20;;;;;;5062636;28;20647;-68
2021/07/08 03:27:48;;;;;;;8.67;7.80;;;24.30;86.20;;;;;;5066291;28;20224;-68
2021/07/08 03:30:19;;;;;;;9.13;8.07;;;24.30;86.20;;;;;;5062420;28;20213;-68
2021/07/08 03:32:48;;;;;;;10.73;7.70;;;24.40;86.20;;;;;;5065486;28;20274;-68
2021/07/08 03:35:22;;;;;;;8.97;8.07;;;24.40;86.20;;;;;;5063982;28;20268;-68
2021/07/08 03:37:49;;;;;;;9.97;8.30;;;24.40;86.00;;;;;;5064082;28;20234;-68
2021/07/08 03:40:17;;;;;;;8.07;7.27;;;24.50;86.10;;;;;;5066080;28;20220;-68
2021/07/08 03:42:45;;;;;;;8.73;7.87;;;24.50;86.20;;;;;;5064448;28;20738;-68
2021/07/08 03:45:13;;;;;;;10.43;9.43;;;24.50;86.20;;;;;;5059787;28;20214;-68
2021/07/08 03:47:42;;;;;;;9.47;8.60;;;24.50;86.20;;;;;;5065977;28;20217;-68
2021/07/08 03:50:10;;;;;;;11.00;8.87;;;24.50;86.20;;;;;;5064564;28;20276;-68
2021/07/08 03:52:39;;;;;;;9.27;8.37;;;24.60;86.30;;;;;;5063141;28;20219;-68
2021/07/08 03:55:13;;;;;;;9.67;8.80;;;24.60;86.20;;;;;;5066200;28;20346;-68
2021/07/08 03:57:53;;;;;;;10.03;9.13;;;24.60;86.20;;;;;;5065828;28;20241;-68
2021/07/08 04:00:38;;;;;;;11.93;9.57;;;24.60;86.20;;;;;;5065348;28;20205;-68
2021/07/08 04:03:08;;;;;;;10.37;9.37;;;24.60;86.50;;;;;;5062046;28;20206;-68
2021/07/08 04:05:37;;;;;;;14.97;10.73;;;24.60;86.60;;;;;;5065793;28;20282;-68
2021/07/08 04:08:05;;;;;;;13.93;11.30;;;24.60;86.80;;;;;;5064291;28;20213;-68
2021/07/08 04:10:33;;;;;;;14.00;10.90;;;24.70;87.00;;;;;;5062878;28;20675;-68
2021/07/08 04:13:01;;;;;;;11.57;10.37;;;24.70;86.90;;;;;;5066810;28;20219;-68
2021/07/08 04:15:29;;;;;;;10.97;10.07;;;24.70;86.80;;;;;;5063580;28;20218;-68
2021/07/08 04:17:56;;;;;;;10.43;9.53;;;24.80;86.70;;;;;;5065212;28;20602;-68
2021/07/08 04:20:24;;;;;;;10.67;9.67;;;24.90;86.60;;;;;;5062536;28;20523;-68
2021/07/08 04:22:51;;;;;;;10.97;9.90;;;25.00;86.40;;;;;;5066504;28;20213;-68
2021/07/08 04:25:20;;;;;;;23.10;10.13;;;25.00;86.00;;;;;;5058736;28;20228;-68
2021/07/08 04:27:47;;;;;;;11.17;9.23;;;25.00;85.80;;;;;;5062420;28;20629;-68
2021/07/08 04:30:19;;;;;;;12.43;10.57;;;25.00;85.50;;;;;;5062710;28;20305;-68
2021/07/08 04:32:46;;;;;;;13.43;9.77;;;25.00;85.40;;;;;;5062998;28;20218;-68
2021/07/08 04:35:18;;;;;;;9.67;8.43;;;25.00;85.30;;;;;;5063348;28;20280;-68
2021/07/08 04:37:46;;;;;;;11.00;8.93;;;25.00;85.50;;;;;;5062584;28;20238;-68
2021/07/08 04:40:16;;;;;;;9.90;8.77;;;25.00;85.50;;;;;;5063639;28;20213;-68
2021/07/08 04:42:43;;;;;;;10.40;8.80;;;25.10;85.50;;;;;;5064968;28;20217;-68
2021/07/08 04:45:11;;;;;;;10.43;8.27;;;25.10;85.40;;;;;;5062680;28;20210;-68
2021/07/08 04:47:40;;;;;;;14.23;7.70;;;25.20;85.30;;;;;;5062284;28;20229;-68
2021/07/08 04:50:10;;;;;;;7.93;7.23;;;25.30;85.00;;;;;;5064823;28;20218;-68
2021/07/08 04:52:38;;;;;;;8.03;7.23;;;25.40;84.70;;;;;;5063613;28;20219;-68
2021/07/08 04:55:06;;;;;;;9.63;7.50;;;25.50;84.40;;;;;;5064787;28;20605;-68
2021/07/08 04:57:33;;;;;;;13.60;7.07;;;25.50;84.10;;;;;;5062247;28;20230;-68
2021/07/08 05:00:00;;;;;;;8.20;6.90;;;25.60;83.90;;;;;;5062714;28;20210;-68
2021/07/08 05:02:27;;;;;;;10.27;8.37;;;25.70;83.50;;;;;;5064455;28;20205;-68
2021/07/08 05:04:54;;;;;;;12.27;8.43;;;25.70;83.30;;;;;;5062521;28;20548;-68
2021/07/08 05:07:21;;;;;;;11.27;8.50;;;25.80;83.00;;;;;;5065829;28;20283;-68
2021/07/08 05:09:48;;;;;;;13.67;9.00;;;26.00;82.70;;;;;;5061909;28;20218;-68
2021/07/08 05:12:15;;;;;;;13.47;10.13;;;26.10;82.10;;;;;;5065583;28;20213;-68
2021/07/08 05:14:42;;;;;;;12.63;10.00;;;26.40;81.30;;;;;;5062689;28;20640;-68
2021/07/08 05:17:09;;;;;;;14.07;9.50;;;26.50;80.70;;;;;;5064259;28;20249;-68
2021/07/08 05:19:36;;;;;;;11.87;10.67;;;26.60;80.20;;;;;;5062339;28;20263;-68
2021/07/08 05:22:03;;;;;;;12.23;11.00;;;26.80;79.70;;;;;;5062946;28;20222;-68
2021/07/08 05:24:32;;;;;;;14.50;11.10;;;27.00;78.90;;;;;;5064788;28;20218;-68
2021/07/08 05:26:59;;;;;;;11.93;10.73;;;27.20;78.30;;;;;;5063607;28;20278;-68
2021/07/08 05:29:26;;;;;;;13.97;10.10;;;27.20;77.90;;;;;;5063767;28;20232;-68
2021/07/08 05:31:53;;;;;;;12.57;10.43;;;27.20;77.60;;;;;;5061086;28;20214;-68
2021/07/08 05:34:20;;;;;;;13.20;10.20;;;27.10;77.50;;;;;;5063385;28;20209;-68
2021/07/08 05:36:51;;;;;;;12.10;10.03;;;27.10;77.60;;;;;;5064354;28;20260;-68
2021/07/08 05:39:18;;;;;;;12.70;10.63;;;27.00;77.50;;;;;;5061668;28;20234;-68
2021/07/08 05:41:45;;;;;;;15.90;10.83;;;27.00;77.60;;;;;;5062915;28;20557;-68
2021/07/08 05:44:12;;;;;;;15.97;10.23;;;26.90;77.60;;;;;;5064495;28;20648;-68
2021/07/08 05:46:39;;;;;;;15.57;12.13;;;26.90;77.80;;;;;;5064057;28;20213;-68
2021/07/08 05:49:06;;;;;;;16.90;12.20;;;26.90;77.60;;;;;;5062649;28;20224;-68
2021/07/08 05:51:33;;;;;;;15.07;13.33;;;26.90;77.60;;;;;;5063173;28;20300;-68
2021/07/08 05:54:00;;;;;;;14.97;13.43;;;26.80;77.60;;;;;;5059079;28;20210;-68
2021/07/08 05:56:28;;;;;;;15.30;13.77;;;26.70;77.30;;;;;;5061381;28;20209;-68
2021/07/08 05:58:55;;;;;;;14.03;12.80;;;26.70;77.50;;;;;;5063609;28;20302;-68
2021/07/08 06:01:22;;;;;;;15.03;13.57;;;26.70;77.80;;;;;;5061195;28;20524;-68
2021/07/08 06:03:49;;;;;;;18.33;14.20;;;26.60;77.90;;;;;;5060890;28;20210;-68
2021/07/08 06:06:17;;;;;;;15.93;13.27;;;26.60;78.10;;;;;;5060925;28;20211;-69
2021/07/08 06:08:45;;;;;;;16.77;14.03;;;26.60;78.20;;;;;;5063706;28;20217;-69
2021/07/08 06:11:12;;;;;;;16.50;15.00;;;26.50;78.40;;;;;;5062615;28;20244;-68
2021/07/08 06:13:40;;;;;;;16.70;15.07;;;26.50;78.40;;;;;;5063117;28;20225;-68
2021/07/08 06:16:07;;;;;;;17.27;15.43;;;26.50;78.30;;;;;;5063210;28;20213;-68
2021/07/08 06:18:36;;;;;;;16.20;14.63;;;26.40;78.40;;;;;;5062533;28;20237;-68
2021/07/08 06:21:04;;;;;;;21.93;16.70;;;26.40;78.50;;;;;;5058943;28;20214;-68
2021/07/08 06:23:32;;;;;;;21.80;17.23;;;26.40;78.50;;;;;;5062465;28;20280;-69
2021/07/08 06:25:59;;;;;;;22.77;17.90;;;26.40;78.40;;;;;;5063647;28;20210;-68
2021/07/08 06:28:26;;;;;;;19.37;17.47;;;26.40;78.40;;;;;;5060705;28;20276;-68
2021/07/08 06:30:53;;;;;;;21.27;17.67;;;26.40;78.30;;;;;;5062289;28;20220;-68
2021/07/08 06:33:20;;;;;;;20.67;18.53;;;26.50;78.10;;;;;;5062546;28;20252;-68
2021/07/08 06:35:48;;;;;;;19.53;17.73;;;26.50;78.10;;;;;;5060707;28;20219;-68
2021/07/08 06:38:15;;;;;;;23.57;19.20;;;26.60;77.80;;;;;;5061272;28;20238;-68
2021/07/08 06:40:42;;;;;;;19.20;17.30;;;26.70;77.40;;;;;;5060673;28;20272;-68
2021/07/08 06:43:09;;;;;;;19.87;17.23;;;26.80;77.10;;;;;;5061359;28;20225;-68
2021/07/08 06:45:36;;;;;;;18.87;16.97;;;27.00;76.90;;;;;;5064984;28;20257;-68
2021/07/08 06:48:12;;;;;;;20.37;18.37;;;27.20;76.60;;;;;;5066485;28;20224;-68
2021/07/08 06:50:41;;;;;;;20.97;18.73;;;27.30;76.10;;;;;;5065378;28;20226;-68
2021/07/08 06:53:08;;;;;;;20.30;18.43;;;27.40;75.50;;;;;;5064015;28;20214;-69
2021/07/08 06:55:36;;;;;;;19.40;17.43;;;27.50;75.40;;;;;;5066635;28;20225;-69
2021/07/08 06:58:03;;;;;;;19.40;17.37;;;27.60;75.10;;;;;;5066001;28;20237;-69
2021/07/08 07:00:33;;;;;;;24.53;17.70;;;27.70;74.90;;;;;;5064328;28;20264;-68
2021/07/08 07:03:01;;;;;;;19.37;16.87;;;27.70;74.60;;;;;;5066431;28;20725;-68
2021/07/08 07:05:28;;;;;;;19.93;17.87;;;27.70;74.40;;;;;;5064112;28;20213;-68
2021/07/08 07:07:56;;;;;;;21.83;18.63;;;27.90;74.20;;;;;;5063979;28;20211;-68
2021/07/08 07:10:25;;;;;;;20.90;18.10;;;28.00;74.00;;;;;;5067744;28;20221;-69
2021/07/08 07:12:55;;;;;;;19.50;17.70;;;28.20;73.50;;;;;;5064030;28;20288;-69
2021/07/08 07:15:28;;;;;;;18.77;16.73;;;28.30;73.10;;;;;;5064274;28;20210;-69
2021/07/08 07:17:57;;;;;;;23.83;18.90;;;28.60;72.60;;;;;;5063383;28;20246;-69
2021/07/08 07:20:25;;;;;;;19.47;17.47;;;29.00;71.50;;;;;;5066203;28;20210;-69
2021/07/08 07:22:52;;;;;;;21.03;16.07;;;29.40;70.00;;;;;;5065718;28;20225;-69
2021/07/08 07:25:21;;;;;;;17.43;15.23;;;29.60;69.30;;;;;;5063479;28;20221;-69
2021/07/08 07:27:50;;;;;;;17.67;15.57;;;29.80;68.80;;;;;;5065504;28;20213;-69
2021/07/08 07:30:18;;;;;;;20.07;17.17;;;29.90;68.10;;;;;;5066244;28;20263;-69
2021/07/08 07:32:46;;;;;;;18.63;16.63;;;29.90;67.80;;;;;;5063504;28;20288;-69
2021/07/08 07:35:14;;;;;;;17.57;16.07;;;29.80;67.90;;;;;;5063463;28;20301;-69
2021/07/08 07:37:41;;;;;;;23.53;16.93;;;29.90;67.80;;;;;;5063485;28;20356;-69
2021/07/08 07:40:10;;;;;;;20.30;18.33;;;29.90;67.80;;;;;;5065848;28;20209;-69
2021/07/08 07:42:37;;;;;;;20.70;18.63;;;30.00;67.80;;;;;;5063472;28;20570;-69
2021/07/08 07:45:07;;;;;;;23.17;19.57;;;30.10;67.20;;;;;;5066804;28;20217;-69
2021/07/08 07:47:34;;;;;;;18.87;17.07;;;30.30;66.60;;;;;;5064443;28;20219;-69
2021/07/08 07:50:03;;;;;;;19.13;17.10;;;30.40;66.00;;;;;;5063699;28;20214;-69
2021/07/08 07:52:30;;;;;;;21.13;16.67;;;30.50;65.70;;;;;;5065230;28;20566;-69
2021/07/08 07:54:57;;;;;;;18.40;15.77;;;30.50;65.70;;;;;;5064257;28;20240;-69
2021/07/08 07:57:25;;;;;;;18.50;16.23;;;30.40;65.80;;;;;;5063191;28;20348;-69
2021/07/08 07:59:52;;;;;;;18.10;16.17;;;30.50;65.70;;;;;;5063429;28;20858;-69
2021/07/08 08:02:19;;;;;;;17.57;14.53;;;30.70;65.10;;;;;;5064301;28;20210;-69
2021/07/08 08:04:54;;;;;;;15.73;13.70;;;30.80;64.80;;;;;;5061942;28;20253;-69
2021/07/08 08:10:08;;;;;;;16.70;13.17;;;30.90;64.40;;;;;;5064160;28;20673;-69
2021/07/08 08:12:35;;;;;;;20.07;16.57;;;30.90;63.60;;;;;;5062669;28;20214;-69
2021/07/08 08:15:07;;;;;;;15.90;14.27;;;30.90;63.30;;;;;;5065279;28;20260;-69
2021/07/08 08:17:36;;;;;;;16.33;14.63;;;30.90;63.30;;;;;;5064307;28;20264;-69
2021/07/08 08:20:13;;;;;;;20.20;13.27;;;30.80;63.00;;;;;;5064119;28;20221;-69
2021/07/08 08:22:41;;;;;;;18.20;14.37;;;30.70;63.50;;;;;;5062638;28;20211;-69
2021/07/08 08:25:10;;;;;;;20.53;14.90;;;30.80;63.80;;;;;;5062933;28;20210;-69
2021/07/08 08:27:38;;;;;;;18.40;13.73;;;30.90;63.70;;;;;;5063439;28;20218;-69
2021/07/08 08:30:07;;;;;;;15.90;14.30;;;30.90;63.60;;;;;;5065484;28;20214;-69
2021/07/08 08:32:35;;;;;;;17.20;15.03;;;31.10;63.30;;;;;;5063407;28;20224;-69
2021/07/08 08:35:03;;;;;;;17.47;13.53;;;31.40;62.60;;;;;;5062732;28;20713;-69
2021/07/08 08:37:30;;;;;;;21.53;14.13;;;31.50;62.30;;;;;;5065006;28;20685;-69
2021/07/08 08:39:57;;;;;;;16.00;14.27;;;31.50;61.70;;;;;;5063430;28;20241;-69
2021/07/08 08:42:25;;;;;;;71.90;18.23;;;31.70;61.10;;;;;;5062275;28;20232;-69
2021/07/08 08:44:53;;;;;;;16.30;14.73;;;31.90;61.30;;;;;;5061375;28;20236;-69
2021/07/08 08:47:22;;;;;;;18.73;14.10;;;32.20;58.80;;;;;;5064098;28;20611;-69
2021/07/08 08:49:53;;;;;;;19.97;15.17;;;32.40;58.80;;;;;;5058578;28;20210;-69
2021/07/08 08:52:22;;;;;;;18.27;16.37;;;32.40;59.40;;;;;;5063714;28;20316;-69
2021/07/08 08:54:51;;;;;;;15.90;13.73;;;32.60;58.50;;;;;;5064567;28;20222;-69
2021/07/08 08:57:19;;;;;;;13.40;11.47;;;32.60;57.40;;;;;;5061010;28;20658;-69
2021/07/08 08:59:46;;;;;;;21.80;11.67;;;32.80;57.50;;;;;;5063946;28;20247;-69
2021/07/08 09:02:15;;;;;;;14.73;10.83;;;33.00;56.40;;;;;;5062020;28;20225;-69
2021/07/08 09:04:43;;;;;;;11.00;8.90;;;33.10;56.20;;;;;;5063444;28;20213;-69
2021/07/08 09:07:28;;;;;;;10.13;7.20;;;33.10;56.30;;;;;;5059637;28;20211;-69
2021/07/08 09:10:09;;;;;;;16.23;7.27;;;33.40;55.50;;;;;;5064092;28;20616;-69
2021/07/08 09:12:36;;;;;;;10.30;7.17;;;33.80;55.10;;;;;;5064701;28;20205;-69
2021/07/08 09:15:19;;;;;;;7.13;6.40;;;34.20;52.40;;;;;;5064485;28;20225;-69
2021/07/08 09:17:47;;;;;;;8.83;6.50;;;34.30;52.40;;;;;;5064050;28;20245;-69
2021/07/08 09:20:17;;;;;;;9.63;5.70;;;34.20;52.40;;;;;;5061799;28;20245;-69
2021/07/08 09:22:47;;;;;;;7.27;6.47;;;34.20;52.80;;;;;;5062585;28;20222;-69
2021/07/08 09:25:20;;;;;;;8.77;7.77;;;34.10;52.60;;;;;;5064488;28;20221;-69
2021/07/08 09:27:48;;;;;;;8.07;7.27;;;33.90;52.20;;;;;;5059876;28;20642;-69
2021/07/08 09:30:27;;;;;;;11.77;6.80;;;33.80;52.00;;;;;;5064332;28;20213;-69
2021/07/08 09:32:55;;;;;;;8.70;7.80;;;33.60;52.90;;;;;;5063928;28;20248;-69
2021/07/08 09:35:40;;;;;;;14.13;6.73;;;33.50;52.80;;;;;;5061628;28;20644;-69
2021/07/08 09:38:12;;;;;;;14.77;8.17;;;33.30;53.40;;;;;;5060094;28;20214;-69
2021/07/08 09:40:40;;;;;;;13.27;8.23;;;33.20;53.70;;;;;;5063376;28;20209;-69
2021/07/08 09:43:08;;;;;;;7.53;4.30;;;33.20;53.40;;;;;;5061202;28;20222;-70
2021/07/08 09:45:46;;;;;;;7.67;3.80;;;33.10;53.90;;;;;;5063385;28;20202;-70
2021/07/08 09:48:19;;;;;;;7.33;4.27;;;33.20;52.20;;;;;;5062478;28;20210;-69
2021/07/08 09:50:47;;;;;;;8.60;5.23;;;33.30;51.20;;;;;;5063313;28;20214;-69
2021/07/08 09:53:18;;;;;;;7.90;4.20;;;33.40;51.30;;;;;;5064280;28;20206;-69
2021/07/08 09:58:50;;;;;;;10.13;4.80;;;34.00;47.70;;;;;;5064009;28;20222;-69
2021/07/08 10:01:20;;;;;;;9.63;4.60;;;34.40;49.10;;;;;;5063217;28;20308;-69
2021/07/08 10:03:48;;;;;;;12.03;5.90;;;34.70;48.60;;;;;;5061024;28;20297;-69
2021/07/08 10:06:17;;;;;;;6.17;4.13;;;34.90;49.00;;;;;;5062743;28;20210;-70
2021/07/08 10:08:44;;;;;;;5.60;3.27;;;35.30;47.20;;;;;;5062120;28;20216;-70
2021/07/08 10:11:13;;;;;;;10.47;4.20;;;35.60;46.10;;;;;;5060465;28;20253;-69
2021/07/08 10:13:41;;;;;;;4.17;3.50;;;35.90;45.50;;;;;;5062482;28;20283;-70
2021/07/08 10:16:09;;;;;;;6.63;3.17;;;36.00;44.80;;;;;;5064092;28;20283;-69
2021/07/08 10:18:39;;;;;;;9.00;3.53;;;35.90;44.10;;;;;;5064393;28;20647;-69
2021/07/08 10:21:07;;;;;;;12.03;3.57;;;35.80;44.60;;;;;;5065764;28;20213;-69
2021/07/08 10:23:37;;;;;;;11.90;3.77;;;35.80;44.40;;;;;;5067426;28;20218;-70
2021/07/08 10:26:06;;;;;;;19.63;3.60;;;35.70;43.40;;;;;;5063990;28;20221;-71
2021/07/08 10:28:42;;;;;;;3.20;2.37;;;35.60;42.80;;;;;;5067633;28;20237;-70
2021/07/08 10:31:14;;;;;;;4.73;2.57;;;35.60;42.60;;;;;;5066446;28;20676;-69
2021/07/08 10:34:01;;;;;;;6.03;2.93;;;35.90;41.80;;;;;;5064377;28;20308;-69
2021/07/08 10:36:31;;;;;;;4.43;3.07;;;36.10;41.10;;;;;;5064791;28;20210;-69
2021/07/08 10:39:13;;;;;;;4.47;3.50;;;36.20;42.00;;;;;;5061785;28;20543;-69
2021/07/08 10:41:43;;;;;;;18.83;9.43;;;36.10;42.40;;;;;;5066123;28;20698;-70
2021/07/08 10:44:41;;;;;;;5.13;2.50;;;36.00;41.60;;;;;;5067058;28;20221;-69
2021/07/08 10:47:39;;;;;;;5.40;2.83;;;35.90;40.90;;;;;;5063467;28;20213;-69
2021/07/08 10:50:27;;;;;;;5.83;3.30;;;35.90;41.30;;;;;;5047727;28;20225;-69
2021/07/08 10:52:54;;;;;;;4.50;2.37;;;35.90;41.40;;;;;;5073687;28;20295;-69
2021/07/08 10:55:39;;;;;;;3.43;2.73;;;36.10;41.40;;;;;;5064512;28;20218;-69
2021/07/08 10:58:27;;;;;;;5.70;3.20;;;36.30;41.00;;;;;;5064625;28;20218;-70
2021/07/08 11:00:54;;;;;;;4.50;2.50;;;36.50;41.10;;;;;;5065002;28;20218;-69
2021/07/08 11:03:39;;;;;;;4.10;2.73;;;36.70;40.00;;;;;;5064929;28;20283;-69
2021/07/08 11:06:15;;;;;;;2.70;2.50;;;36.90;40.50;;;;;;5065928;28;20701;-69
2021/07/08 11:08:59;;;;;;;4.50;3.10;;;37.10;40.30;;;;;;5066061;28;20609;-69
2021/07/08 11:11:25;;;;;;;3.33;2.53;;;37.00;40.30;;;;;;5064458;28;20211;-69
2021/07/08 11:13:57;;;;;;;4.33;3.00;;;36.80;40.00;;;;;;5064336;28;20280;-69
2021/07/08 11:16:47;;;;;;;6.33;3.00;;;36.70;40.60;;;;;;5063728;28;20210;-70
2021/07/08 11:19:20;;;;;;;6.33;2.97;;;36.60;39.20;;;;;;5064081;28;20226;-70
2021/07/08 11:21:52;;;;;;;3.80;2.67;;;36.70;40.50;;;;;;5064181;28;20221;-69
2021/07/08 11:24:26;;;;;;;12.17;3.10;;;37.00;40.10;;;;;;5064553;28;20274;-69
2021/07/08 11:26:53;;;;;;;5.40;2.67;;;37.30;40.00;;;;;;5064554;28;20222;-69
2021/07/08 11:29:41;;;;;;;4.17;2.10;;;37.30;39.70;;;;;;5061937;28;20220;-69
2021/07/08 11:32:44;;;;;;;3.50;2.10;;;37.20;38.30;;;;;;5064663;28;20218;-69
2021/07/08 11:35:20;;;;;;;10.87;2.37;;;37.10;39.10;;;;;;5066533;28;20225;-69
2021/07/08 11:37:56;;;;;;;2.37;1.87;;;37.00;37.80;;;;;;5064998;28;20206;-70
2021/07/08 11:40:24;;;;;;;2.20;2.00;;;36.70;36.60;;;;;;5064104;28;20291;-70
2021/07/08 11:42:52;;;;;;;2.83;1.67;;;36.50;36.20;;;;;;5064251;28;20277;-70
2021/07/08 11:45:22;;;;;;;2.53;1.83;;;36.40;37.10;;;;;;5066074;28;20210;-70
2021/07/08 11:47:57;;;;;;;4.37;1.83;;;36.40;37.70;;;;;;5065098;28;20247;-68
2021/07/08 11:50:30;;;;;;;1.97;1.60;;;36.40;37.60;;;;;;5066089;28;20225;-68
2021/07/08 11:53:09;;;;;;;4.00;1.90;;;36.40;36.80;;;;;;5065284;28;20896;-68
2021/07/08 11:55:39;;;;;;;3.57;1.77;;;36.50;37.50;;;;;;5064652;28;20267;-67
2021/07/08 11:58:08;;;;;;;5.40;2.10;;;36.60;36.70;;;;;;5063012;28;20295;-68
2021/07/08 12:00:43;;;;;;;4.30;2.20;;;36.80;37.30;;;;;;5064952;28;20254;-68
2021/07/08 12:03:32;;;;;;;5.23;1.77;;;37.10;36.70;;;;;;5065764;28;20220;-68
2021/07/08 12:06:04;;;;;;;4.17;2.37;;;37.10;35.90;;;;;;5065743;28;20659;-68
2021/07/08 12:08:32;;;;;;;7.47;2.00;;;37.10;36.20;;;;;;5062217;28;20575;-67
2021/07/08 12:11:11;;;;;;;7.13;2.30;;;37.10;37.00;;;;;;5062924;28;20288;-67
2021/07/08 12:13:56;;;;;;;6.53;2.33;;;37.30;37.10;;;;;;5065148;28;20206;-68
2021/07/08 12:16:33;;;;;;;6.57;2.10;;;37.70;36.60;;;;;;5064724;28;20225;-68
2021/07/08 12:19:19;;;;;;;8.10;2.00;;;38.00;36.10;;;;;;5063568;28;20684;-68
2021/07/08 12:21:48;;;;;;;3.77;2.33;;;38.00;35.30;;;;;;5063613;28;20272;-68
2021/07/08 12:24:23;;;;;;;5.33;1.80;;;37.90;35.00;;;;;;5062945;28;20218;-68
2021/07/08 12:26:52;;;;;;;3.90;1.80;;;37.60;35.20;;;;;;5063856;28;20210;-68
2021/07/08 12:29:32;;;;;;;3.77;1.60;;;37.40;34.90;;;;;;5066223;28;20244;-68
2021/07/08 12:32:06;;;;;;;2.03;1.47;;;37.30;34.90;;;;;;5064465;28;20517;-68
2021/07/08 12:34:53;;;;;;;2.90;1.63;;;37.20;34.80;;;;;;5062832;28;20224;-68
2021/07/08 12:37:20;;;;;;;2.73;1.80;;;37.10;35.50;;;;;;5061513;28;20233;-68
2021/07/08 12:40:03;;;;;;;4.53;1.50;;;37.10;35.60;;;;;;5061118;28;20230;-68
2021/07/08 12:42:42;;;;;;;2.00;1.63;;;37.00;35.60;;;;;;5063386;28;20660;-68
2021/07/08 12:45:19;;;;;;;3.33;2.03;;;37.00;35.60;;;;;;5060873;28;20286;-68
2021/07/08 12:47:51;;;;;;;8.63;2.20;;;36.80;36.50;;;;;;5064776;28;20209;-68
2021/07/08 12:50:24;;;;;;;4.30;1.90;;;36.70;37.60;;;;;;5063653;28;20633;-68
2021/07/08 12:52:52;;;;;;;7.70;2.07;;;36.50;37.40;;;;;;5061942;28;20666;-68
2021/07/08 12:55:58;;;;;;;4.83;1.90;;;36.30;38.00;;;;;;5063616;28;20244;-68
2021/07/08 12:58:28;;;;;;;5.83;2.20;;;35.90;38.90;;;;;;5036299;28;20686;-68